Time,TemperatureF,DewpointF,PressureIn,WindDirection,WindDirectionDegrees,WindSpeedMPH,WindSpeedGustMPH,Humidity,HourlyPrecipIn,Conditions,Clouds,dailyrainin,SoftwareType,DateUTC
2013-12-26 00:12:00,27.0,23.0,30.13,North,-999,-999.0,-999.0,83,0.00,,,0.00,,2013-12-26 05:12:00,
2013-12-26 00:22:00,27.0,23.0,30.13,North,-999,-999.0,-999.0,83,0.00,,,0.00,,2013-12-26 05:22:00,
2013-12-26 00:33:00,27.0,23.0,30.13,North,-999,-999.0,-999.0,83,0.00,,,0.00,,2013-12-26 05:33:00,
2013-12-26 00:43:00,27.0,23.0,30.13,North,-999,-999.0,-999.0,83,0.00,,,0.00,,2013-12-26 05:43:00,
2013-12-26 02:42:00,28.0,25.0,30.11,WNW,292,4.0,4.0,87,0.00,,,0.00,,2013-12-26 07:42:00,
2013-12-26 02:53:00,28.0,25.0,30.13,NW,315,2.0,2.0,87,0.00,,,0.00,,2013-12-26 07:53:00,
2013-12-26 03:22:00,28.0,25.0,30.13,NW,315,2.0,2.0,87,0.00,,,0.00,,2013-12-26 08:22:00,
2013-12-26 03:53:00,27.0,24.0,30.14,North,-999,-999.0,-999.0,87,0.00,,,0.00,,2013-12-26 08:53:00,
2013-12-26 04:02:00,27.0,24.0,30.14,North,-999,-999.0,-999.0,87,0.00,,,0.00,,2013-12-26 09:02:00,
2013-12-26 04:22:00,27.0,23.0,30.15,West,270,7.0,7.0,85,0.00,,,0.00,,2013-12-26 09:22:00,
2013-12-26 04:53:00,27.0,23.0,30.15,North,-999,-999.0,-999.0,85,0.00,,,0.00,,2013-12-26 09:53:00,
2013-12-26 05:22:00,27.0,23.0,30.16,WNW,292,2.0,2.0,84,0.00,,,0.00,,2013-12-26 10:22:00,
2013-12-26 05:52:00,26.0,22.0,30.17,WNW,292,2.0,2.0,83,0.00,,,0.00,,2013-12-26 10:52:00,
2013-12-26 06:22:00,25.0,20.0,30.18,NW,315,0.0,3.0,82,0.00,,,0.00,,2013-12-26 11:22:00,
2013-12-26 06:43:00,25.0,20.0,30.18,NW,315,0.0,0.0,82,0.00,,,0.00,,2013-12-26 11:43:00,
2013-12-26 06:52:00,25.0,20.0,30.18,NW,315,0.0,0.0,82,0.00,,,0.00,,2013-12-26 11:52:00,
2013-12-26 07:02:00,25.0,20.0,30.18,NW,315,0.0,0.0,82,0.00,,,0.00,,2013-12-26 12:02:00,
2013-12-26 07:53:00,22.0,16.0,30.22,North,-999,-999.0,-999.0,79,0.00,,,0.00,,2013-12-26 12:53:00,
2013-12-26 08:12:00,22.0,16.0,30.22,North,-999,-999.0,-999.0,79,0.00,,,0.00,,2013-12-26 13:12:00,
2013-12-26 08:22:00,22.0,16.0,30.22,North,-999,-999.0,-999.0,79,0.00,,,0.00,,2013-12-26 13:22:00,
2013-12-26 10:54:00,23.0,17.0,30.31,West,270,2.0,2.0,76,0.00,,,0.00,,2013-12-26 15:54:00,
2013-12-26 11:03:00,23.0,17.0,30.31,West,270,2.0,2.0,76,0.00,,,0.00,,2013-12-26 16:03:00,
2013-12-26 11:23:00,23.0,17.0,30.33,NW,315,6.0,6.0,77,0.00,,,0.00,,2013-12-26 16:23:00,
2013-12-26 11:33:00,23.0,17.0,30.33,NW,315,6.0,6.0,77,0.00,,,0.00,,2013-12-26 16:33:00,
2013-12-26 11:53:00,23.0,17.0,30.33,NW,315,6.0,6.0,77,0.00,,,0.00,,2013-12-26 16:53:00,
2013-12-26 12:23:00,24.0,17.0,30.32,WNW,292,6.0,6.0,74,0.00,,,0.00,,2013-12-26 17:23:00,
2013-12-26 12:43:00,23.0,16.0,30.32,WNW,292,6.0,6.0,74,0.00,,,0.00,,2013-12-26 17:43:00,
2013-12-26 12:52:00,23.0,16.0,30.32,WNW,292,6.0,6.0,74,0.00,,,0.00,,2013-12-26 17:52:00,
2013-12-26 13:22:00,22.0,14.0,30.31,WNW,292,5.0,5.0,72,0.00,,,0.00,,2013-12-26 18:22:00,
2013-12-26 13:42:00,22.0,14.0,30.32,WNW,292,5.0,5.0,72,0.00,,,0.00,,2013-12-26 18:42:00,
2013-12-26 13:52:00,22.0,14.0,30.32,WNW,292,5.0,5.0,72,0.00,,,0.00,,2013-12-26 18:52:00,
2013-12-26 14:02:00,22.0,14.0,30.32,WNW,292,5.0,5.0,72,0.00,,,0.00,,2013-12-26 19:02:00,
2013-12-26 19:22:00,30.0,23.0,30.29,SW,225,0.0,0.0,76,0.00,,,0.00,,2013-12-27 00:22:00,
2013-12-26 19:52:00,30.0,24.0,30.28,North,-999,-999.0,-999.0,77,0.00,,,0.00,,2013-12-27 00:52:00,
2013-12-26 20:02:00,30.0,24.0,30.28,North,-999,-999.0,-999.0,77,0.00,,,0.00,,2013-12-27 01:02:00,
2013-12-26 20:22:00,30.0,24.0,30.27,South,180,0.0,0.0,78,0.00,,,0.00,,2013-12-27 01:22:00,
2013-12-26 20:42:00,30.0,24.0,30.27,South,180,0.0,0.0,78,0.00,,,0.00,,2013-12-27 01:42:00,
2013-12-26 20:52:00,30.0,24.0,30.27,South,180,0.0,0.0,78,0.00,,,0.00,,2013-12-27 01:52:00,
2013-12-26 21:01:00,30.0,24.0,30.27,South,180,0.0,0.0,78,0.00,,,0.00,,2013-12-27 02:01:00,
2013-12-26 22:53:00,32.0,26.0,30.26,WSW,247,0.0,0.0,77,0.00,,,0.00,,2013-12-27 03:53:00,
2013-12-26 23:12:00,32.0,26.0,30.27,WSW,247,0.0,0.0,77,0.00,,,0.00,,2013-12-27 04:12:00,
2013-12-26 23:23:00,32.0,26.0,30.27,WSW,247,0.0,0.0,77,0.00,,,0.00,,2013-12-27 04:23:00,
2013-12-26 23:53:00,32.0,25.0,30.27,WSW,247,0.0,5.0,75,0.00,,,0.00,,2013-12-27 04:53:00,